Time;durP1;ratioP1;P1;durP2;ratioP2;P2;SDS_P1;SDS_P2;PMS_P1;PMS_P2;Temp;Humidity;BMP_temperature;BMP_pressure;BME280_temperature;BME280_humidity;BME280_pressure;Samples;Min_cycle;Max_cycle;Signal;HPM_P1;HPM_P2
2021/06/16 00:02:04;;;;;;;2.90;2.60;;;21.50;1.00;;;;;;5113253;28;20430;-79
2021/06/16 00:04:31;;;;;;;4.57;3.27;;;21.50;1.00;;;;;;5113308;28;20434;-80
2021/06/16 00:06:58;;;;;;;3.53;2.80;;;21.50;1.00;;;;;;5098924;28;20470;-79
2021/06/16 00:09:25;;;;;;;4.73;2.80;;;21.40;1.00;;;;;;5102387;28;20458;-78
2021/06/16 00:11:52;;;;;;;4.10;2.50;;;21.40;1.00;;;;;;5103990;28;20466;-78
2021/06/16 00:14:20;;;;;;;3.33;2.90;;;21.40;1.00;;;;;;5113071;28;20450;-79
2021/06/16 00:16:48;;;;;;;5.00;3.07;;;21.40;1.00;;;;;;5110055;28;20474;-79
2021/06/16 00:19:15;;;;;;;2.70;2.47;;;21.30;1.00;;;;;;5099121;28;20454;-77
2021/06/16 00:21:42;;;;;;;6.90;3.10;;;21.30;1.00;;;;;;5109259;28;20963;-78
2021/06/16 00:24:10;;;;;;;3.10;2.80;;;21.30;1.00;;;;;;5111226;28;20446;-80
2021/06/16 00:26:37;;;;;;;4.27;2.70;;;21.30;1.00;;;;;;5102371;28;20475;-81
2021/06/16 00:29:04;;;;;;;3.53;3.20;;;21.30;1.00;;;;;;5093637;28;20450;-83
2021/06/16 00:31:31;;;;;;;3.80;2.90;;;21.20;1.00;;;;;;5094468;28;20486;-79
2021/06/16 00:33:59;;;;;;;3.73;3.20;;;21.20;1.00;;;;;;5093139;28;20439;-79
2021/06/16 00:36:26;;;;;;;3.13;2.83;;;21.20;1.00;;;;;;5106927;28;20998;-79
2021/06/16 00:38:53;;;;;;;4.60;3.30;;;21.20;1.00;;;;;;5104055;28;20439;-81
2021/06/16 00:41:21;;;;;;;4.20;3.00;;;21.20;1.00;;;;;;5111394;28;20435;-78
2021/06/16 00:43:47;;;;;;;9.43;3.20;;;21.10;1.00;;;;;;5105231;28;20457;-80
2021/06/16 00:46:14;;;;;;;4.50;3.40;;;21.10;1.00;;;;;;5111053;28;20474;-76
2021/06/16 00:48:41;;;;;;;2.83;2.53;;;21.10;1.00;;;;;;5102255;28;20455;-80
2021/06/16 00:51:10;;;;;;;5.70;3.30;;;21.10;1.00;;;;;;5102984;28;20477;-78
2021/06/16 00:53:36;;;;;;;5.33;3.00;;;21.00;1.00;;;;;;5099956;28;20481;-77
2021/06/16 00:56:04;;;;;;;3.30;3.00;;;21.00;1.00;;;;;;5111584;28;20970;-79
2021/06/16 00:58:31;;;;;;;3.33;2.60;;;21.00;1.00;;;;;;5113492;28;20450;-81
2021/06/16 01:01:04;;;;;;;3.50;3.00;;;21.00;1.00;;;;;;5111295;28;20446;-78
2021/06/16 01:03:38;;;;;;;4.10;2.83;;;21.00;1.00;;;;;;5111786;28;20458;-77
2021/06/16 01:06:09;;;;;;;5.73;3.40;;;20.90;1.00;;;;;;5101436;28;20466;-78
2021/06/16 01:08:48;;;;;;;4.17;3.00;;;20.90;1.00;;;;;;5107091;28;20455;-79
2021/06/16 01:11:17;;;;;;;4.43;2.90;;;20.90;1.00;;;;;;5113884;28;20481;-78
2021/06/16 01:13:49;;;;;;;3.00;2.80;;;20.90;1.00;;;;;;5112041;28;20461;-78
2021/06/16 01:16:39;;;;;;;4.60;3.20;;;20.90;1.00;;;;;;5108963;28;20454;-79
2021/06/16 01:19:15;;;;;;;3.70;3.10;;;20.80;1.00;;;;;;5067008;28;20475;-77
2021/06/16 01:21:46;;;;;;;5.60;3.73;;;20.80;1.00;;;;;;5056081;28;20817;-76
2021/06/16 01:24:20;;;;;;;4.50;3.23;;;20.80;1.00;;;;;;5048889;28;20458;-77
2021/06/16 01:26:54;;;;;;;3.10;2.80;;;20.80;1.00;;;;;;5069272;28;20472;-78
2021/06/16 01:29:24;;;;;;;3.73;2.90;;;20.80;1.00;;;;;;5043236;28;20495;-79
2021/06/16 01:31:51;;;;;;;5.63;3.40;;;20.70;1.00;;;;;;5061265;28;20480;-82
2021/06/16 01:34:22;;;;;;;3.40;2.97;;;20.70;1.00;;;;;;5053547;28;20554;-76
2021/06/16 01:36:52;;;;;;;5.27;3.37;;;20.70;1.00;;;;;;5077496;28;20463;-78
2021/06/16 01:39:22;;;;;;;3.63;2.80;;;20.70;1.00;;;;;;5087095;28;20451;-78
2021/06/16 01:41:53;;;;;;;3.50;3.10;;;20.60;1.00;;;;;;5113281;28;20430;-78
2021/06/16 01:44:22;;;;;;;3.63;3.27;;;20.60;1.00;;;;;;5112368;28;20434;-76
2021/06/16 01:46:51;;;;;;;3.23;2.90;;;20.60;1.00;;;;;;5099543;28;20485;-77
2021/06/16 01:49:21;;;;;;;3.30;3.00;;;20.50;1.00;;;;;;5094979;28;20955;-78
2021/06/16 01:51:48;;;;;;;4.83;3.20;;;20.50;1.00;;;;;;5108372;28;21383;-79
2021/06/16 01:54:17;;;;;;;4.63;3.47;;;20.50;1.00;;;;;;5099861;28;20463;-77
2021/06/16 01:56:46;;;;;;;8.03;3.27;;;20.40;23.10;;;;;;5109984;28;20474;-79
2021/06/16 01:59:15;;;;;;;4.13;2.80;;;20.40;54.60;;;;;;5112379;28;20438;-80
2021/06/16 02:01:42;;;;;;;4.97;3.70;;;20.40;79.40;;;;;;5104434;28;20480;-81
2021/06/16 02:04:09;;;;;;;4.20;3.80;;;20.40;98.30;;;;;;5104791;28;20450;-80
2021/06/16 02:06:40;;;;;;;6.27;4.07;;;20.30;99.90;;;;;;5114032;28;20477;-77
2021/06/16 02:09:09;;;;;;;3.30;3.00;;;20.30;99.90;;;;;;5108909;28;21042;-77
2021/06/16 02:11:39;;;;;;;6.03;3.73;;;20.30;99.90;;;;;;5127287;27;20822;-79
2021/06/16 02:14:09;;;;;;;5.50;4.50;;;20.30;99.90;;;;;;5108802;28;20438;-77
2021/06/16 02:16:41;;;;;;;6.27;3.47;;;20.30;99.90;;;;;;5104052;28;20481;-77
2021/06/16 02:19:12;;;;;;;4.73;3.10;;;20.30;99.90;;;;;;5110992;28;20450;-77
2021/06/16 02:21:40;;;;;;;4.03;3.30;;;20.20;99.90;;;;;;5105201;28;20454;-77
2021/06/16 02:24:09;;;;;;;3.77;3.47;;;20.20;99.90;;;;;;5106352;28;20447;-79
2021/06/16 02:26:36;;;;;;;4.23;3.93;;;20.20;99.90;;;;;;5110326;28;20458;-82
2021/06/16 02:29:05;;;;;;;4.57;3.50;;;20.20;99.90;;;;;;5100517;28;20684;-79
2021/06/16 02:31:32;;;;;;;5.60;4.07;;;20.20;99.90;;;;;;5109545;28;20473;-80
2021/06/16 02:34:00;;;;;;;4.03;3.63;;;20.20;99.90;;;;;;5111362;28;20446;-79
2021/06/16 02:36:29;;;;;;;4.23;3.73;;;20.20;99.90;;;;;;5102035;28;20470;-79
2021/06/16 02:39:00;;;;;;;6.10;4.03;;;20.10;99.90;;;;;;5110460;28;20804;-78
2021/06/16 02:41:27;;;;;;;6.73;4.10;;;20.10;99.90;;;;;;5099125;28;20465;-81
2021/06/16 02:43:55;;;;;;;9.57;4.60;;;20.10;1.00;;;;;;5105726;28;20459;-77
2021/06/16 02:46:23;;;;;;;7.40;4.20;;;20.10;1.00;;;;;;5110399;28;20433;-82
2021/06/16 02:48:52;;;;;;;4.73;4.20;;;20.10;1.00;;;;;;5102072;28;20463;-76
2021/06/16 02:51:21;;;;;;;4.20;3.80;;;20.10;1.00;;;;;;5100159;28;20454;-80
2021/06/16 02:53:49;;;;;;;4.60;3.90;;;20.10;1.00;;;;;;5113239;28;20513;-77
2021/06/16 02:56:17;;;;;;;4.60;4.20;;;20.10;1.00;;;;;;5107986;28;20486;-79
2021/06/16 02:58:47;;;;;;;6.77;5.00;;;20.10;1.00;;;;;;5109764;28;20484;-79
2021/06/16 03:01:16;;;;;;;5.10;4.60;;;20.10;1.00;;;;;;5114202;28;20462;-82
2021/06/16 03:03:48;;;;;;;6.70;4.50;;;20.10;1.00;;;;;;5111512;28;20450;-80
2021/06/16 03:06:17;;;;;;;6.20;4.20;;;20.10;1.00;;;;;;5115074;28;20986;-79
2021/06/16 03:08:47;;;;;;;4.63;4.10;;;20.10;1.00;;;;;;5107481;28;20467;-78
2021/06/16 03:11:15;;;;;;;4.23;3.77;;;20.10;1.00;;;;;;5112731;28;20449;-81
2021/06/16 03:13:45;;;;;;;4.60;4.20;;;20.10;1.00;;;;;;5114715;28;20485;-79
2021/06/16 03:16:13;;;;;;;4.37;3.97;;;20.10;1.00;;;;;;5105558;28;20481;-78
2021/06/16 03:18:42;;;;;;;4.00;3.70;;;20.10;1.00;;;;;;5114055;28;20446;-78
2021/06/16 03:21:09;;;;;;;4.67;4.20;;;20.10;1.00;;;;;;5114589;28;20804;-79
2021/06/16 03:23:36;;;;;;;5.67;4.27;;;20.10;1.00;;;;;;5100465;28;20587;-77
2021/06/16 03:26:06;;;;;;;5.13;4.40;;;20.10;1.00;;;;;;5107096;28;20470;-77
2021/06/16 03:28:35;;;;;;;5.30;4.43;;;20.10;1.00;;;;;;5115307;28;20499;-79
2021/06/16 03:31:03;;;;;;;5.23;4.73;;;20.10;1.00;;;;;;5109443;28;20833;-78
2021/06/16 03:33:30;;;;;;;5.20;4.10;;;20.10;1.00;;;;;;5114517;28;20480;-76
2021/06/16 03:35:59;;;;;;;5.30;4.80;;;20.10;21.50;;;;;;5114009;28;20459;-77
2021/06/16 03:38:27;;;;;;;4.60;4.20;;;20.10;95.20;;;;;;5088472;28;20449;-78
2021/06/16 03:40:55;;;;;;;6.10;5.20;;;20.10;99.90;;;;;;5114722;28;20442;-81
2021/06/16 03:43:24;;;;;;;6.33;4.50;;;20.20;99.90;;;;;;5113795;28;20953;-79
2021/06/16 03:45:52;;;;;;;6.00;5.00;;;20.20;99.90;;;;;;5108366;28;20461;-76
2021/06/16 03:48:21;;;;;;;4.60;4.20;;;20.20;99.90;;;;;;5112240;28;20461;-78
2021/06/16 03:50:48;;;;;;;7.27;5.23;;;20.20;99.90;;;;;;5116089;28;20478;-77
2021/06/16 03:53:17;;;;;;;6.57;5.67;;;20.20;99.90;;;;;;5110002;28;20480;-79
2021/06/16 03:55:49;;;;;;;6.67;5.60;;;20.20;99.90;;;;;;5112268;28;20810;-79
2021/06/16 03:58:16;;;;;;;7.63;5.97;;;20.20;99.90;;;;;;5108365;28;20482;-83
2021/06/16 04:00:45;;;;;;;6.17;5.57;;;20.20;99.90;;;;;;5110240;28;20457;-79
2021/06/16 04:03:15;;;;;;;5.73;5.07;;;20.20;99.90;;;;;;5102120;28;20477;-78
2021/06/16 04:05:43;;;;;;;7.40;5.70;;;20.20;99.90;;;;;;5109409;28;20465;-78
2021/06/16 04:08:12;;;;;;;6.40;5.53;;;20.20;1.00;;;;;;5094122;28;20435;-77
2021/06/16 04:10:42;;;;;;;8.37;5.77;;;20.20;1.00;;;;;;5099393;28;20491;-79
2021/06/16 04:13:09;;;;;;;5.60;4.70;;;20.20;1.00;;;;;;5096020;28;20486;-79
2021/06/16 04:15:38;;;;;;;5.87;5.27;;;20.20;1.00;;;;;;5097708;28;20477;-77
2021/06/16 04:18:10;;;;;;;6.97;5.10;;;20.20;1.00;;;;;;5110832;28;20450;-80
2021/06/16 04:20:37;;;;;;;5.47;4.97;;;20.20;1.00;;;;;;5111687;28;20485;-80
2021/06/16 04:23:05;;;;;;;6.03;5.40;;;20.20;1.00;;;;;;5104084;28;20473;-78
2021/06/16 04:25:32;;;;;;;7.10;5.43;;;20.20;1.00;;;;;;5105358;28;20806;-79
2021/06/16 04:27:59;;;;;;;5.30;4.80;;;20.30;1.00;;;;;;5112738;28;20454;-79
2021/06/16 04:30:27;;;;;;;6.40;5.77;;;20.30;1.00;;;;;;5110975;28;20443;-77
2021/06/16 04:32:54;;;;;;;5.70;5.00;;;20.30;1.00;;;;;;5100600;28;20493;-81
2021/06/16 04:35:23;;;;;;;8.47;6.03;;;20.40;1.40;;;;;;5111390;28;20434;-82
2021/06/16 04:37:51;;;;;;;6.10;5.57;;;20.40;1.20;;;;;;5111143;28;20466;-79
2021/06/16 04:40:18;;;;;;;6.50;5.60;;;20.50;29.30;;;;;;5095341;28;20812;-76
2021/06/16 04:42:45;;;;;;;5.60;5.10;;;20.50;5.10;;;;;;5109639;28;20453;-76
2021/06/16 04:45:13;;;;;;;6.47;4.90;;;20.60;8.90;;;;;;5114434;28;20442;-81
2021/06/16 04:47:40;;;;;;;6.20;5.00;;;20.70;15.90;;;;;;5109258;28;20462;-80
2021/06/16 04:50:10;;;;;;;5.30;4.73;;;20.70;1.60;;;;;;5107262;28;20815;-78
2021/06/16 04:52:38;;;;;;;6.10;5.03;;;20.80;1.00;;;;;;5101033;28;20508;-77
2021/06/16 04:55:06;;;;;;;5.97;5.37;;;20.80;1.00;;;;;;5100372;28;20454;-79
2021/06/16 04:57:33;;;;;;;5.90;5.40;;;20.90;1.00;;;;;;5109587;28;20476;-80
2021/06/16 05:00:00;;;;;;;6.07;5.47;;;21.00;1.00;;;;;;5114225;28;20467;-79
2021/06/16 05:02:27;;;;;;;7.00;5.17;;;21.00;1.00;;;;;;5104014;28;20462;-77
2021/06/16 05:04:54;;;;;;;7.13;5.40;;;21.10;1.00;;;;;;5112085;28;20443;-80
2021/06/16 05:07:21;;;;;;;5.93;5.37;;;21.10;1.00;;;;;;5108235;28;20481;-78
2021/06/16 05:09:49;;;;;;;7.80;5.37;;;21.10;1.00;;;;;;5109254;28;20463;-80
2021/06/16 05:12:16;;;;;;;6.53;5.67;;;21.20;1.00;;;;;;5102274;28;20453;-81
2021/06/16 05:14:43;;;;;;;5.80;5.27;;;21.30;1.00;;;;;;5107896;28;20461;-78
2021/06/16 05:17:11;;;;;;;6.00;5.40;;;21.30;1.00;;;;;;5108186;28;20484;-78
2021/06/16 05:19:38;;;;;;;5.13;4.73;;;21.40;1.00;;;;;;5112625;28;20948;-82
2021/06/16 05:22:10;;;;;;;5.43;4.90;;;21.40;1.00;;;;;;5110714;28;20465;-79
2021/06/16 05:24:37;;;;;;;5.07;4.43;;;21.50;1.00;;;;;;5112652;28;20990;-80
2021/06/16 05:27:06;;;;;;;6.03;4.90;;;21.50;1.00;;;;;;5110340;28;20478;-83
2021/06/16 05:29:34;;;;;;;6.20;5.03;;;21.50;1.00;;;;;;5106080;28;20455;-83
2021/06/16 05:32:00;;;;;;;7.30;5.80;;;21.60;1.00;;;;;;5109366;28;20466;-77
2021/06/16 05:34:27;;;;;;;6.60;4.93;;;21.60;1.00;;;;;;5107856;28;20891;-79
2021/06/16 05:36:54;;;;;;;7.87;5.40;;;21.70;1.00;;;;;;5092034;28;20459;-78
2021/06/16 05:39:21;;;;;;;6.47;5.20;;;21.60;1.00;;;;;;5100653;28;20462;-80
2021/06/16 05:41:49;;;;;;;7.70;5.40;;;21.60;1.00;;;;;;5110137;28;20460;-77
2021/06/16 05:44:17;;;;;;;11.07;5.03;;;21.60;1.00;;;;;;5110151;28;20434;-80
2021/06/16 05:46:44;;;;;;;5.60;5.10;;;21.70;1.00;;;;;;5101405;28;20476;-75
2021/06/16 05:49:11;;;;;;;6.63;5.20;;;21.70;1.00;;;;;;5107423;28;20455;-80
2021/06/16 05:51:38;;;;;;;7.83;5.20;;;21.70;1.00;;;;;;5111092;28;20450;-76
2021/06/16 05:54:09;;;;;;;7.53;5.17;;;21.70;1.00;;;;;;5105160;28;20482;-76
2021/06/16 05:56:36;;;;;;;4.97;4.53;;;21.80;1.00;;;;;;5099426;28;21056;-78
2021/06/16 05:59:03;;;;;;;5.47;4.63;;;21.90;1.00;;;;;;5106065;28;20462;-79
2021/06/16 06:01:32;;;;;;;6.27;4.70;;;22.00;1.00;;;;;;5109074;28;20465;-79
2021/06/16 06:03:59;;;;;;;5.50;4.20;;;22.10;1.00;;;;;;5094221;28;20454;-78
2021/06/16 06:06:27;;;;;;;5.53;4.80;;;22.20;1.00;;;;;;5103464;28;20574;-76
2021/06/16 06:08:54;;;;;;;7.50;4.50;;;22.30;99.90;;;;;;5112300;28;20438;-77
2021/06/16 06:11:21;;;;;;;5.43;4.93;;;22.40;99.90;;;;;;5113775;28;20465;-76
2021/06/16 06:13:48;;;;;;;8.20;5.20;;;22.50;99.90;;;;;;5103887;28;20485;-76
2021/06/16 06:16:15;;;;;;;5.93;4.60;;;22.60;99.90;;;;;;5113574;28;20469;-78
2021/06/16 06:18:43;;;;;;;4.80;4.40;;;22.80;99.90;;;;;;5112474;28;20442;-76
2021/06/16 06:21:10;;;;;;;4.80;4.40;;;22.90;99.90;;;;;;5104078;28;20490;-81
2021/06/16 06:23:37;;;;;;;4.60;4.20;;;23.00;99.90;;;;;;5109441;28;20437;-77
2021/06/16 06:26:05;;;;;;;5.47;4.30;;;23.20;99.90;;;;;;5104867;28;20482;-78
2021/06/16 06:28:31;;;;;;;5.70;4.10;;;23.30;99.90;;;;;;5098964;28;20454;-78
2021/06/16 06:30:58;;;;;;;7.10;4.73;;;23.40;99.90;;;;;;5110642;28;20451;-77
2021/06/16 06:33:25;;;;;;;4.70;4.30;;;23.50;99.90;;;;;;5112028;28;20489;-81
2021/06/16 06:35:54;;;;;;;5.13;4.40;;;23.60;99.90;;;;;;5113719;28;20462;-78
2021/06/16 06:38:20;;;;;;;4.53;4.13;;;23.70;99.90;;;;;;5112284;28;20950;-77
2021/06/16 06:40:47;;;;;;;7.93;4.80;;;23.80;76.40;;;;;;5113809;28;20776;-78
2021/06/16 06:43:14;;;;;;;5.00;4.10;;;23.90;61.90;;;;;;5109173;28;20450;-79
2021/06/16 06:45:41;;;;;;;6.33;4.63;;;24.00;34.10;;;;;;5109578;28;20462;-80
2021/06/16 06:48:11;;;;;;;5.63;4.60;;;24.10;4.20;;;;;;5109790;28;20466;-79
2021/06/16 06:50:38;;;;;;;5.83;4.10;;;24.20;6.70;;;;;;5107978;28;20454;-79
2021/06/16 06:53:06;;;;;;;4.53;4.00;;;24.30;20.80;;;;;;5112138;28;20497;-77
2021/06/16 06:55:34;;;;;;;5.07;4.33;;;24.50;1.00;;;;;;5109389;28;20474;-82
2021/06/16 06:58:00;;;;;;;7.83;4.20;;;24.70;5.50;;;;;;5108479;28;20438;-78
2021/06/16 07:00:27;;;;;;;4.27;3.90;;;24.90;1.00;;;;;;5096765;28;20458;-83
2021/06/16 07:02:56;;;;;;;6.77;4.33;;;25.10;1.00;;;;;;5107111;28;20450;-80
2021/06/16 07:05:24;;;;;;;4.20;3.40;;;25.20;1.00;;;;;;5094870;28;20450;-81
2021/06/16 07:07:51;;;;;;;5.57;4.00;;;25.50;1.00;;;;;;5097056;28;20979;-79
2021/06/16 07:10:19;;;;;;;3.80;3.40;;;25.70;1.00;;;;;;5098947;28;20459;-82
2021/06/16 07:12:46;;;;;;;4.27;3.97;;;25.90;1.00;;;;;;5108522;28;20445;-81
2021/06/16 07:15:14;;;;;;;6.60;4.73;;;26.10;1.00;;;;;;5100462;28;20450;-78
2021/06/16 07:17:41;;;;;;;4.80;3.77;;;26.30;1.00;;;;;;5107550;28;20456;-80
2021/06/16 07:20:09;;;;;;;4.53;4.13;;;26.50;1.00;;;;;;5110423;28;20470;-80
2021/06/16 07:22:36;;;;;;;4.37;3.97;;;26.70;1.00;;;;;;5110198;28;20458;-82
2021/06/16 07:25:04;;;;;;;3.73;3.43;;;27.00;1.00;;;;;;5105382;28;20458;-81
2021/06/16 07:27:32;;;;;;;4.03;3.53;;;27.20;99.90;;;;;;5097494;28;20493;-82
2021/06/16 07:29:59;;;;;;;5.27;3.40;;;27.50;99.90;;;;;;5100345;28;20450;-83
2021/06/16 07:32:26;;;;;;;4.10;3.70;;;27.80;99.90;;;;;;5108977;28;20462;-78
2021/06/16 07:34:53;;;;;;;5.40;3.70;;;28.10;99.90;;;;;;5106141;28;20481;-80
2021/06/16 07:37:20;;;;;;;4.77;3.70;;;28.60;99.90;;;;;;5114142;28;20492;-79
2021/06/16 07:39:46;;;;;;;5.33;3.83;;;29.10;99.90;;;;;;5106549;28;20455;-78
2021/06/16 07:42:14;;;;;;;5.00;3.70;;;29.60;99.90;;;;;;5110840;28;20812;-82
2021/06/16 07:44:42;;;;;;;4.80;3.73;;;30.20;99.90;;;;;;5114725;28;20437;-83
2021/06/16 07:47:09;;;;;;;4.97;4.07;;;30.80;99.90;;;;;;5106781;28;20493;-81
2021/06/16 07:49:36;;;;;;;8.93;4.00;;;31.50;99.90;;;;;;5108137;28;20461;-82
2021/06/16 07:52:04;;;;;;;5.27;3.90;;;32.10;89.70;;;;;;5113345;28;20459;-79
2021/06/16 07:54:31;;;;;;;9.83;3.60;;;32.70;16.30;;;;;;5104926;28;20480;-75
2021/06/16 07:56:58;;;;;;;4.57;4.17;;;33.20;1.00;;;;;;5103282;28;20466;-83
2021/06/16 07:59:25;;;;;;;6.50;4.40;;;33.80;1.00;;;;;;5107053;28;20434;-81
2021/06/16 08:01:53;;;;;;;4.57;4.17;;;34.10;1.00;;;;;;5112382;28;20454;-79
2021/06/16 08:04:23;;;;;;;3.93;3.60;;;34.50;1.00;;;;;;5114724;28;20463;-83
2021/06/16 08:06:50;;;;;;;4.37;3.93;;;35.00;1.00;;;;;;5102901;28;20478;-75
2021/06/16 08:09:17;;;;;;;6.80;3.80;;;35.30;1.00;;;;;;5107385;28;20501;-81
2021/06/16 08:11:44;;;;;;;5.70;4.00;;;35.70;1.00;;;;;;5101841;28;20540;-82
2021/06/16 08:14:11;;;;;;;5.73;4.20;;;36.10;1.00;;;;;;5099594;28;20473;-77
2021/06/16 08:16:38;;;;;;;4.13;3.70;;;36.40;1.00;;;;;;5114304;28;20454;-77
2021/06/16 08:19:06;;;;;;;5.67;4.20;;;36.70;1.00;;;;;;5113099;28;20462;-82
2021/06/16 08:21:33;;;;;;;4.80;4.40;;;36.90;1.00;;;;;;5099511;28;20501;-79
2021/06/16 08:24:00;;;;;;;4.67;4.27;;;37.10;1.00;;;;;;5112159;28;20438;-83
2021/06/16 08:26:27;;;;;;;6.00;4.97;;;36.90;99.90;;;;;;5102758;28;20541;-79
2021/06/16 08:28:54;;;;;;;4.77;4.13;;;37.10;99.90;;;;;;5099327;28;20450;-78
2021/06/16 08:31:21;;;;;;;4.80;4.27;;;37.10;99.90;;;;;;5114393;28;20434;-80
2021/06/16 08:33:48;;;;;;;5.10;4.53;;;37.10;99.90;;;;;;5114613;28;20824;-77
2021/06/16 08:36:16;;;;;;;4.70;4.30;;;37.40;99.90;;;;;;5109484;28;20474;-79
2021/06/16 08:38:43;;;;;;;5.70;4.13;;;37.70;99.90;;;;;;5115996;28;20533;-77
2021/06/16 08:41:10;;;;;;;5.20;4.80;;;37.80;99.90;;;;;;5106339;28;20549;-77
2021/06/16 08:43:39;;;;;;;4.90;4.50;;;37.90;99.90;;;;;;5105465;28;20465;-78
2021/06/16 08:46:09;;;;;;;6.87;4.57;;;38.00;99.90;;;;;;5102972;28;20480;-80
2021/06/16 08:48:36;;;;;;;6.10;4.30;;;38.00;99.90;;;;;;5107857;28;20461;-83
2021/06/16 08:51:04;;;;;;;6.67;4.50;;;38.30;99.90;;;;;;5112422;28;20477;-78
2021/06/16 08:53:33;;;;;;;4.77;4.37;;;38.40;99.90;;;;;;5104354;28;20450;-77
2021/06/16 08:56:02;;;;;;;4.53;4.13;;;38.60;99.90;;;;;;5099373;28;20489;-79
2021/06/16 08:58:30;;;;;;;6.00;4.27;;;38.80;99.90;;;;;;5109584;28;20461;-80
2021/06/16 09:00:57;;;;;;;7.50;5.17;;;38.70;41.10;;;;;;5114552;28;20451;-78
2021/06/16 09:03:24;;;;;;;4.87;4.00;;;38.40;1.00;;;;;;5104569;28;20531;-75
2021/06/16 09:05:52;;;;;;;5.03;3.93;;;38.20;1.00;;;;;;5111523;28;20477;-76
2021/06/16 09:08:22;;;;;;;4.90;4.50;;;38.50;1.00;;;;;;5110573;28;20435;-78
2021/06/16 09:10:52;;;;;;;4.67;4.27;;;38.60;1.00;;;;;;5100512;28;20498;-79
2021/06/16 09:13:28;;;;;;;4.37;4.07;;;38.50;1.00;;;;;;5109806;28;20878;-81
2021/06/16 09:15:56;;;;;;;6.47;5.10;;;38.50;1.00;;;;;;5112196;28;20450;-79
2021/06/16 09:18:23;;;;;;;4.70;4.30;;;38.40;1.00;;;;;;5106159;28;20465;-81
2021/06/16 09:20:56;;;;;;;5.70;4.80;;;38.50;1.00;;;;;;5110371;27;21493;-80
2021/06/16 09:23:24;;;;;;;5.30;4.80;;;38.60;1.00;;;;;;5101121;28;20675;-77
2021/06/16 09:26:09;;;;;;;5.47;4.70;;;38.50;1.00;;;;;;5094521;28;20557;-78
2021/06/16 09:28:38;;;;;;;5.03;4.63;;;38.10;1.00;;;;;;5096491;28;20439;-81
2021/06/16 09:31:05;;;;;;;5.80;5.30;;;37.50;1.00;;;;;;5102958;28;21183;-75
2021/06/16 09:33:33;;;;;;;11.80;5.90;;;36.80;1.00;;;;;;5108882;28;20464;-78
2021/06/16 09:36:00;;;;;;;7.87;5.57;;;36.20;1.00;;;;;;5108262;28;20489;-77
2021/06/16 09:38:31;;;;;;;5.80;5.20;;;35.60;1.00;;;;;;5108860;28;20537;-76
2021/06/16 09:40:59;;;;;;;6.57;5.97;;;35.20;1.00;;;;;;5112532;28;20499;-78
2021/06/16 09:43:31;;;;;;;5.97;5.40;;;34.50;1.00;;;;;;5101290;28;20820;-79
2021/06/16 09:46:01;;;;;;;6.07;5.50;;;34.00;1.00;;;;;;5105456;28;20486;-76
2021/06/16 09:48:32;;;;;;;6.07;5.47;;;33.70;1.00;;;;;;5101608;28;20458;-76
2021/06/16 09:51:18;;;;;;;11.23;6.33;;;33.30;1.00;;;;;;5104206;28;20443;-79
2021/06/16 09:54:02;;;;;;;8.80;5.90;;;32.90;1.00;;;;;;5111617;28;20538;-77
2021/06/16 09:56:32;;;;;;;5.70;5.20;;;32.50;1.00;;;;;;5114708;27;20467;-79
2021/06/16 09:59:01;;;;;;;7.53;5.70;;;32.40;1.00;;;;;;5106761;28;20865;-76
2021/06/16 10:01:44;;;;;;;9.50;6.80;;;32.20;1.00;;;;;;5111007;28;20458;-76
2021/06/16 10:04:11;;;;;;;6.17;5.57;;;31.80;1.00;;;;;;5102209;28;20458;-76
2021/06/16 10:06:38;;;;;;;5.90;5.33;;;31.50;1.00;;;;;;5097553;28;20561;-80
2021/06/16 10:09:08;;;;;;;6.23;5.60;;;31.40;1.00;;;;;;5110436;28;20454;-78
2021/06/16 10:11:35;;;;;;;6.70;6.03;;;31.20;1.00;;;;;;5104308;28;20461;-76
2021/06/16 10:14:04;;;;;;;5.70;5.20;;;31.10;1.00;;;;;;5111661;28;20462;-76
2021/06/16 10:16:31;;;;;;;6.17;5.57;;;30.90;1.00;;;;;;5106281;28;20466;-79
2021/06/16 10:18:59;;;;;;;6.30;5.33;;;30.90;1.00;;;;;;5096691;28;20481;-76
2021/06/16 10:21:26;;;;;;;6.67;5.50;;;30.80;1.00;;;;;;5096446;28;20466;-77
2021/06/16 10:23:54;;;;;;;6.67;5.90;;;30.70;1.00;;;;;;5106282;28;20464;-77
2021/06/16 10:26:26;;;;;;;6.60;5.90;;;30.60;1.00;;;;;;5097888;28;21519;-82
2021/06/16 10:28:58;;;;;;;6.83;6.23;;;30.60;1.00;;;;;;5123570;27;20557;-77
2021/06/16 10:31:34;;;;;;;6.23;5.73;;;30.50;1.00;;;;;;5107344;28;20548;-75
2021/06/16 10:34:03;;;;;;;6.23;5.60;;;30.40;1.00;;;;;;5076287;28;20454;-78
2021/06/16 10:36:31;;;;;;;5.93;5.43;;;30.30;1.00;;;;;;5111486;28;20473;-78
2021/06/16 10:39:14;;;;;;;6.73;6.03;;;30.20;1.00;;;;;;5109513;28;20947;-76
2021/06/16 10:41:59;;;;;;;6.47;5.83;;;30.20;1.00;;;;;;5098041;28;20450;-74
2021/06/16 10:44:29;;;;;;;7.20;5.30;;;30.10;1.00;;;;;;5112755;28;20445;-75
2021/06/16 10:46:59;;;;;;;6.27;5.67;;;30.10;1.00;;;;;;5106996;28;20585;-76
2021/06/16 10:49:56;;;;;;;8.93;5.50;;;30.00;1.00;;;;;;5107144;28;20537;-78
2021/06/16 10:52:26;;;;;;;6.47;5.87;;;30.00;1.00;;;;;;5108613;28;20449;-78
2021/06/16 10:54:57;;;;;;;7.30;5.60;;;29.90;1.00;;;;;;5106560;28;20563;-75
2021/06/16 10:57:24;;;;;;;6.00;5.40;;;29.90;1.00;;;;;;5107009;28;20478;-77
2021/06/16 11:00:08;;;;;;;6.00;5.40;;;29.90;1.00;;;;;;5110370;28;20780;-76
2021/06/16 11:02:56;;;;;;;5.67;5.00;;;29.90;1.00;;;;;;5108914;28;20952;-78
2021/06/16 11:05:27;;;;;;;5.43;4.93;;;29.90;1.00;;;;;;5107686;28;20454;-80
2021/06/16 11:07:55;;;;;;;8.93;5.80;;;29.80;1.00;;;;;;5111794;28;20441;-82
2021/06/16 11:10:23;;;;;;;5.90;5.50;;;29.90;13.60;;;;;;5106526;28;20460;-80
2021/06/16 11:12:53;;;;;;;7.00;5.70;;;29.90;1.00;;;;;;5111599;28;20546;-82
2021/06/16 11:15:33;;;;;;;5.70;5.20;;;29.90;1.00;;;;;;5111554;27;20481;-78
2021/06/16 11:18:03;;;;;;;6.33;5.73;;;29.90;1.00;;;;;;5099390;28;21025;-76
2021/06/16 11:20:34;;;;;;;5.80;5.30;;;29.90;1.00;;;;;;5126533;27;20489;-77
2021/06/16 11:23:03;;;;;;;5.73;5.23;;;29.90;1.00;;;;;;5113477;28;20449;-78
2021/06/16 11:25:33;;;;;;;6.40;5.13;;;29.90;1.00;;;;;;5099021;28;20463;-82
2021/06/16 11:28:19;;;;;;;5.90;5.40;;;29.90;1.00;;;;;;5121643;27;21493;-79
2021/06/16 11:30:50;;;;;;;5.60;4.77;;;29.90;1.00;;;;;;5104455;28;20450;-80
2021/06/16 11:33:30;;;;;;;6.27;4.90;;;29.90;1.00;;;;;;5112160;28;20446;-76
2021/06/16 11:35:59;;;;;;;6.17;5.33;;;29.90;1.00;;;;;;5130669;27;20668;-81
2021/06/16 11:38:30;;;;;;;6.70;5.13;;;29.90;1.00;;;;;;5129955;27;20919;-79
2021/06/16 11:40:59;;;;;;;5.67;5.17;;;30.00;1.00;;;;;;5114485;28;20518;-78
2021/06/16 11:43:36;;;;;;;5.67;5.10;;;30.00;1.00;;;;;;5114909;28;20454;-78
2021/06/16 11:46:06;;;;;;;5.70;4.90;;;30.00;1.00;;;;;;5114138;27;20477;-77
2021/06/16 11:48:35;;;;;;;7.73;5.50;;;30.10;1.00;;;;;;5088302;28;20818;-77
2021/06/16 11:51:02;;;;;;;6.47;5.60;;;30.10;1.00;;;;;;5115023;28;20437;-80
2021/06/16 11:53:31;;;;;;;6.53;5.93;;;30.20;1.00;;;;;;5112116;28;20799;-80
2021/06/16 11:56:02;;;;;;;5.77;5.17;;;30.20;1.00;;;;;;5111471;28;20572;-77
2021/06/16 11:58:31;;;;;;;9.53;5.50;;;30.20;1.00;;;;;;5113025;28;20939;-79
2021/06/16 12:01:07;;;;;;;5.50;4.97;;;30.30;1.00;;;;;;5111451;28;20563;-79
2021/06/16 12:03:39;;;;;;;7.13;4.93;;;30.30;1.00;;;;;;5109902;28;20469;-78
2021/06/16 12:06:08;;;;;;;6.07;4.93;;;30.40;1.00;;;;;;5105346;28;20494;-75
2021/06/16 12:08:36;;;;;;;5.47;4.97;;;30.50;1.00;;;;;;5089912;28;20978;-78
2021/06/16 12:11:17;;;;;;;5.23;4.53;;;30.50;1.00;;;;;;5112066;28;20449;-79
2021/06/16 12:13:55;;;;;;;5.30;4.63;;;30.50;1.00;;;;;;5105950;28;20943;-75
2021/06/16 12:16:27;;;;;;;5.67;4.70;;;30.50;1.00;;;;;;5100477;28;20550;-79
2021/06/16 12:19:06;;;;;;;6.90;5.43;;;30.60;1.00;;;;;;5111436;28;20450;-77
2021/06/16 12:21:33;;;;;;;6.90;5.00;;;30.50;1.00;;;;;;5104579;28;21257;-78
2021/06/16 12:24:00;;;;;;;4.87;4.40;;;30.50;1.00;;;;;;5104073;28;20449;-78
2021/06/16 12:26:29;;;;;;;5.53;4.50;;;30.60;1.00;;;;;;5102298;28;20482;-79
2021/06/16 12:28:57;;;;;;;5.17;4.67;;;30.60;1.00;;;;;;5112039;28;21002;-79
2021/06/16 12:31:28;;;;;;;6.60;4.70;;;30.70;1.00;;;;;;5106562;28;20459;-75
2021/06/16 12:34:03;;;;;;;6.33;5.03;;;30.80;1.00;;;;;;5109810;28;20431;-78
2021/06/16 12:36:32;;;;;;;5.30;4.80;;;30.80;1.00;;;;;;5104740;28;20494;-78
2021/06/16 12:39:10;;;;;;;5.10;4.70;;;30.80;1.00;;;;;;5101330;28;20464;-77
2021/06/16 12:41:41;;;;;;;4.80;4.40;;;30.90;1.00;;;;;;5108524;28;20545;-79
2021/06/16 12:44:14;;;;;;;5.00;4.57;;;31.00;1.00;;;;;;5098290;28;20470;-80
2021/06/16 12:46:57;;;;;;;4.47;4.07;;;31.00;1.00;;;;;;5103536;28;20466;-76
2021/06/16 12:49:27;;;;;;;5.77;4.53;;;31.10;1.00;;;;;;5106534;28;20454;-77
2021/06/16 12:51:55;;;;;;;6.17;4.23;;;31.20;1.00;;;;;;5102669;28;20472;-81
2021/06/16 12:54:25;;;;;;;4.83;4.43;;;31.20;1.00;;;;;;5122903;27;20451;-77
2021/06/16 12:57:03;;;;;;;4.70;4.30;;;31.30;1.00;;;;;;5102939;28;20494;-77
2021/06/16 12:59:39;;;;;;;4.20;3.80;;;31.30;1.00;;;;;;5100017;27;20498;-77
2021/06/16 13:02:07;;;;;;;7.27;4.30;;;31.40;1.00;;;;;;5099803;28;20451;-77
2021/06/16 13:04:47;;;;;;;7.10;4.93;;;31.40;1.00;;;;;;5109891;28;20431;-77
2021/06/16 13:07:14;;;;;;;4.63;4.23;;;31.40;1.00;;;;;;5101133;28;20470;-75